sensor_id;sensor_type;location;lat;lon;timestamp;P1;durP1;ratioP1;P2;durP2;ratioP2
4971;SDS011;2501;51.214;6.768;2023-04-06T00:00:01;22.60;;;12.13;;
4971;SDS011;2501;51.214;6.768;2023-04-06T00:02:35;18.25;;;11.10;;
4971;SDS011;2501;51.214;6.768;2023-04-06T00:05:04;20.05;;;10.95;;
4971;SDS011;2501;51.214;6.768;2023-04-06T00:07:33;22.60;;;10.77;;
4971;SDS011;2501;51.214;6.768;2023-04-06T00:10:02;17.83;;;10.00;;
4971;SDS011;2501;51.214;6.768;2023-04-06T00:12:31;23.98;;;11.27;;
4971;SDS011;2501;51.214;6.768;2023-04-06T00:15:00;22.75;;;11.55;;
4971;SDS011;2501;51.214;6.768;2023-04-06T00:17:30;22.77;;;12.10;;
4971;SDS011;2501;51.214;6.768;2023-04-06T00:20:02;27.45;;;11.68;;
4971;SDS011;2501;51.214;6.768;2023-04-06T00:22:31;19.90;;;11.20;;
4971;SDS011;2501;51.214;6.768;2023-04-06T00:25:00;21.77;;;10.10;;
4971;SDS011;2501;51.214;6.768;2023-04-06T00:27:29;16.27;;;9.77;;
4971;SDS011;2501;51.214;6.768;2023-04-06T00:29:57;19.50;;;9.90;;
4971;SDS011;2501;51.214;6.768;2023-04-06T00:32:26;20.90;;;10.20;;
4971;SDS011;2501;51.214;6.768;2023-04-06T00:34:54;14.52;;;10.35;;
4971;SDS011;2501;51.214;6.768;2023-04-06T00:37:25;19.15;;;10.25;;
4971;SDS011;2501;51.214;6.768;2023-04-06T00:39:54;17.75;;;10.68;;
4971;SDS011;2501;51.214;6.768;2023-04-06T00:42:22;16.80;;;11.13;;
4971;SDS011;2501;51.214;6.768;2023-04-06T00:44:53;17.88;;;11.23;;
4971;SDS011;2501;51.214;6.768;2023-04-06T00:47:21;15.98;;;10.82;;
4971;SDS011;2501;51.214;6.768;2023-04-06T00:49:51;15.85;;;10.65;;
4971;SDS011;2501;51.214;6.768;2023-04-06T00:52:19;27.65;;;11.13;;
4971;SDS011;2501;51.214;6.768;2023-04-06T00:54:51;21.37;;;11.60;;
4971;SDS011;2501;51.214;6.768;2023-04-06T00:57:19;20.83;;;11.82;;
4971;SDS011;2501;51.214;6.768;2023-04-06T00:59:48;21.05;;;12.80;;
4971;SDS011;2501;51.214;6.768;2023-04-06T01:02:17;21.17;;;12.00;;
4971;SDS011;2501;51.214;6.768;2023-04-06T01:04:45;23.48;;;12.27;;
4971;SDS011;2501;51.214;6.768;2023-04-06T01:07:14;20.08;;;12.15;;
4971;SDS011;2501;51.214;6.768;2023-04-06T01:09:42;22.20;;;12.50;;
4971;SDS011;2501;51.214;6.768;2023-04-06T01:12:13;20.77;;;11.80;;
4971;SDS011;2501;51.214;6.768;2023-04-06T01:14:42;20.05;;;12.38;;
4971;SDS011;2501;51.214;6.768;2023-04-06T01:17:10;24.05;;;11.88;;
4971;SDS011;2501;51.214;6.768;2023-04-06T01:19:39;22.27;;;12.10;;
4971;SDS011;2501;51.214;6.768;2023-04-06T01:22:15;23.58;;;12.77;;
4971;SDS011;2501;51.214;6.768;2023-04-06T01:24:44;22.63;;;11.60;;
4971;SDS011;2501;51.214;6.768;2023-04-06T01:27:13;18.77;;;12.07;;
4971;SDS011;2501;51.214;6.768;2023-04-06T01:29:42;17.40;;;11.50;;
4971;SDS011;2501;51.214;6.768;2023-04-06T01:32:10;17.73;;;11.90;;
4971;SDS011;2501;51.214;6.768;2023-04-06T01:34:39;20.63;;;12.30;;
4971;SDS011;2501;51.214;6.768;2023-04-06T01:37:07;24.10;;;13.55;;
4971;SDS011;2501;51.214;6.768;2023-04-06T01:39:38;22.90;;;12.45;;
4971;SDS011;2501;51.214;6.768;2023-04-06T01:42:07;27.45;;;13.65;;
4971;SDS011;2501;51.214;6.768;2023-04-06T01:44:35;20.55;;;12.77;;
4971;SDS011;2501;51.214;6.768;2023-04-06T01:47:04;18.63;;;12.50;;
4971;SDS011;2501;51.214;6.768;2023-04-06T01:49:32;26.83;;;13.03;;
4971;SDS011;2501;51.214;6.768;2023-04-06T01:52:01;22.85;;;12.93;;
4971;SDS011;2501;51.214;6.768;2023-04-06T01:54:29;28.90;;;13.40;;
4971;SDS011;2501;51.214;6.768;2023-04-06T01:57:00;23.80;;;13.25;;
4971;SDS011;2501;51.214;6.768;2023-04-06T01:59:29;22.67;;;12.90;;
4971;SDS011;2501;51.214;6.768;2023-04-06T02:01:57;20.92;;;13.30;;
4971;SDS011;2501;51.214;6.768;2023-04-06T02:04:26;22.55;;;13.15;;
4971;SDS011;2501;51.214;6.768;2023-04-06T02:06:54;22.77;;;13.30;;
4971;SDS011;2501;51.214;6.768;2023-04-06T02:09:23;20.77;;;13.40;;
4971;SDS011;2501;51.214;6.768;2023-04-06T02:11:51;19.42;;;12.75;;
4971;SDS011;2501;51.214;6.768;2023-04-06T02:14:24;23.30;;;13.75;;
4971;SDS011;2501;51.214;6.768;2023-04-06T02:16:53;22.88;;;13.18;;
4971;SDS011;2501;51.214;6.768;2023-04-06T02:19:22;20.58;;;12.40;;
4971;SDS011;2501;51.214;6.768;2023-04-06T02:21:50;26.05;;;12.95;;
4971;SDS011;2501;51.214;6.768;2023-04-06T02:24:19;20.13;;;13.05;;
4971;SDS011;2501;51.214;6.768;2023-04-06T02:26:47;20.67;;;12.43;;
4971;SDS011;2501;51.214;6.768;2023-04-06T02:29:15;23.42;;;13.00;;
4971;SDS011;2501;51.214;6.768;2023-04-06T02:31:47;20.52;;;13.02;;
4971;SDS011;2501;51.214;6.768;2023-04-06T02:34:16;22.60;;;12.65;;
4971;SDS011;2501;51.214;6.768;2023-04-06T02:36:45;20.80;;;12.23;;
4971;SDS011;2501;51.214;6.768;2023-04-06T02:39:14;18.00;;;12.02;;
4971;SDS011;2501;51.214;6.768;2023-04-06T02:41:43;20.30;;;12.45;;
4971;SDS011;2501;51.214;6.768;2023-04-06T02:44:12;23.35;;;13.40;;
4971;SDS011;2501;51.214;6.768;2023-04-06T02:46:40;19.75;;;12.50;;
4971;SDS011;2501;51.214;6.768;2023-04-06T02:49:11;21.17;;;11.80;;
4971;SDS011;2501;51.214;6.768;2023-04-06T02:51:40;23.13;;;12.32;;
4971;SDS011;2501;51.214;6.768;2023-04-06T02:54:08;17.23;;;11.68;;
4971;SDS011;2501;51.214;6.768;2023-04-06T02:56:37;19.55;;;11.48;;
4971;SDS011;2501;51.214;6.768;2023-04-06T02:59:05;18.92;;;11.50;;
4971;SDS011;2501;51.214;6.768;2023-04-06T03:01:34;18.55;;;12.00;;
4971;SDS011;2501;51.214;6.768;2023-04-06T03:04:02;18.48;;;11.98;;
4971;SDS011;2501;51.214;6.768;2023-04-06T03:06:33;19.55;;;12.63;;
4971;SDS011;2501;51.214;6.768;2023-04-06T03:09:02;20.00;;;11.90;;
4971;SDS011;2501;51.214;6.768;2023-04-06T03:11:31;18.45;;;11.45;;
4971;SDS011;2501;51.214;6.768;2023-04-06T03:13:59;17.58;;;12.18;;
4971;SDS011;2501;51.214;6.768;2023-04-06T03:16:28;17.60;;;10.93;;
4971;SDS011;2501;51.214;6.768;2023-04-06T03:18:56;21.92;;;12.02;;
4971;SDS011;2501;51.214;6.768;2023-04-06T03:21:25;17.92;;;11.50;;
4971;SDS011;2501;51.214;6.768;2023-04-06T03:23:56;18.10;;;11.18;;
4971;SDS011;2501;51.214;6.768;2023-04-06T03:26:24;15.48;;;10.98;;
4971;SDS011;2501;51.214;6.768;2023-04-06T03:28:53;20.03;;;11.50;;
4971;SDS011;2501;51.214;6.768;2023-04-06T03:31:22;19.77;;;11.55;;
4971;SDS011;2501;51.214;6.768;2023-04-06T03:33:50;20.77;;;11.50;;
4971;SDS011;2501;51.214;6.768;2023-04-06T03:36:19;22.05;;;10.95;;
4971;SDS011;2501;51.214;6.768;2023-04-06T03:38:47;17.95;;;11.30;;
4971;SDS011;2501;51.214;6.768;2023-04-06T03:41:18;16.50;;;10.63;;
4971;SDS011;2501;51.214;6.768;2023-04-06T03:43:47;16.13;;;9.90;;
4971;SDS011;2501;51.214;6.768;2023-04-06T03:46:15;15.95;;;10.10;;
4971;SDS011;2501;51.214;6.768;2023-04-06T03:48:44;18.20;;;9.80;;
4971;SDS011;2501;51.214;6.768;2023-04-06T03:51:13;13.67;;;10.60;;
4971;SDS011;2501;51.214;6.768;2023-04-06T03:53:41;18.40;;;11.15;;
4971;SDS011;2501;51.214;6.768;2023-04-06T03:56:10;15.20;;;9.90;;
4971;SDS011;2501;51.214;6.768;2023-04-06T03:58:41;15.95;;;10.88;;
4971;SDS011;2501;51.214;6.768;2023-04-06T04:01:10;14.82;;;10.18;;
4971;SDS011;2501;51.214;6.768;2023-04-06T04:03:39;16.98;;;10.48;;
4971;SDS011;2501;51.214;6.768;2023-04-06T04:06:07;14.75;;;10.60;;
4971;SDS011;2501;51.214;6.768;2023-04-06T04:08:36;15.90;;;10.13;;
4971;SDS011;2501;51.214;6.768;2023-04-06T04:11:04;18.30;;;10.27;;
4971;SDS011;2501;51.214;6.768;2023-04-06T04:13:32;13.13;;;9.48;;
4971;SDS011;2501;51.214;6.768;2023-04-06T04:16:04;17.33;;;10.57;;
4971;SDS011;2501;51.214;6.768;2023-04-06T04:18:32;15.83;;;10.13;;
4971;SDS011;2501;51.214;6.768;2023-04-06T04:21:01;15.35;;;10.48;;
4971;SDS011;2501;51.214;6.768;2023-04-06T04:23:30;13.70;;;9.60;;
4971;SDS011;2501;51.214;6.768;2023-04-06T04:25:58;18.38;;;10.60;;
4971;SDS011;2501;51.214;6.768;2023-04-06T04:28:27;16.43;;;10.57;;
4971;SDS011;2501;51.214;6.768;2023-04-06T04:30:59;18.07;;;10.83;;
4971;SDS011;2501;51.214;6.768;2023-04-06T04:33:30;15.55;;;10.50;;
4971;SDS011;2501;51.214;6.768;2023-04-06T04:35:59;17.45;;;11.20;;
4971;SDS011;2501;51.214;6.768;2023-04-06T04:38:27;20.15;;;11.10;;
4971;SDS011;2501;51.214;6.768;2023-04-06T04:40:56;15.77;;;10.27;;
4971;SDS011;2501;51.214;6.768;2023-04-06T04:43:24;15.70;;;10.32;;
4971;SDS011;2501;51.214;6.768;2023-04-06T04:45:53;18.25;;;10.93;;
4971;SDS011;2501;51.214;6.768;2023-04-06T04:48:21;36.05;;;13.57;;
4971;SDS011;2501;51.214;6.768;2023-04-06T04:50:53;20.77;;;11.70;;
4971;SDS011;2501;51.214;6.768;2023-04-06T04:53:21;17.02;;;11.10;;
4971;SDS011;2501;51.214;6.768;2023-04-06T04:55:51;20.13;;;10.98;;
4971;SDS011;2501;51.214;6.768;2023-04-06T04:58:19;17.08;;;10.10;;
4971;SDS011;2501;51.214;6.768;2023-04-06T05:00:48;18.98;;;10.73;;
4971;SDS011;2501;51.214;6.768;2023-04-06T05:03:17;120.45;;;21.40;;
4971;SDS011;2501;51.214;6.768;2023-04-06T05:05:49;28.57;;;11.73;;
4971;SDS011;2501;51.214;6.768;2023-04-06T05:08:20;18.48;;;11.30;;
4971;SDS011;2501;51.214;6.768;2023-04-06T05:10:49;21.95;;;11.15;;
4971;SDS011;2501;51.214;6.768;2023-04-06T05:13:17;20.17;;;11.07;;
4971;SDS011;2501;51.214;6.768;2023-04-06T05:15:46;18.33;;;10.98;;
4971;SDS011;2501;51.214;6.768;2023-04-06T05:18:14;17.27;;;9.63;;
4971;SDS011;2501;51.214;6.768;2023-04-06T05:20:43;19.85;;;10.75;;
4971;SDS011;2501;51.214;6.768;2023-04-06T05:23:11;21.33;;;11.30;;
4971;SDS011;2501;51.214;6.768;2023-04-06T05:25:43;18.33;;;10.20;;
4971;SDS011;2501;51.214;6.768;2023-04-06T05:28:11;19.63;;;11.70;;
4971;SDS011;2501;51.214;6.768;2023-04-06T05:30:41;21.30;;;10.68;;
4971;SDS011;2501;51.214;6.768;2023-04-06T05:33:10;21.48;;;10.20;;
4971;SDS011;2501;51.214;6.768;2023-04-06T05:35:39;19.60;;;10.00;;
4971;SDS011;2501;51.214;6.768;2023-04-06T05:38:08;18.27;;;10.20;;
4971;SDS011;2501;51.214;6.768;2023-04-06T05:40:37;13.52;;;9.73;;
4971;SDS011;2501;51.214;6.768;2023-04-06T05:43:09;13.55;;;8.98;;
4971;SDS011;2501;51.214;6.768;2023-04-06T05:45:37;16.98;;;9.52;;
4971;SDS011;2501;51.214;6.768;2023-04-06T05:48:06;12.23;;;8.43;;
4971;SDS011;2501;51.214;6.768;2023-04-06T05:50:35;17.83;;;8.55;;
4971;SDS011;2501;51.214;6.768;2023-04-06T05:53:03;14.95;;;8.65;;
4971;SDS011;2501;51.214;6.768;2023-04-06T05:55:32;22.05;;;9.77;;
4971;SDS011;2501;51.214;6.768;2023-04-06T05:58:00;19.58;;;9.20;;
4971;SDS011;2501;51.214;6.768;2023-04-06T06:00:31;12.40;;;8.20;;
4971;SDS011;2501;51.214;6.768;2023-04-06T06:03:00;16.08;;;10.40;;
4971;SDS011;2501;51.214;6.768;2023-04-06T06:05:29;16.33;;;8.97;;
4971;SDS011;2501;51.214;6.768;2023-04-06T06:07:58;16.08;;;9.40;;
4971;SDS011;2501;51.214;6.768;2023-04-06T06:10:27;16.10;;;9.27;;
4971;SDS011;2501;51.214;6.768;2023-04-06T06:12:55;17.40;;;9.43;;
4971;SDS011;2501;51.214;6.768;2023-04-06T06:15:24;14.27;;;9.20;;
4971;SDS011;2501;51.214;6.768;2023-04-06T06:17:55;16.35;;;9.57;;
4971;SDS011;2501;51.214;6.768;2023-04-06T06:20:23;13.25;;;9.00;;
4971;SDS011;2501;51.214;6.768;2023-04-06T06:22:52;13.75;;;8.52;;
4971;SDS011;2501;51.214;6.768;2023-04-06T06:25:21;15.40;;;8.80;;
4971;SDS011;2501;51.214;6.768;2023-04-06T06:27:50;17.73;;;9.77;;
4971;SDS011;2501;51.214;6.768;2023-04-06T06:30:18;14.02;;;8.93;;
4971;SDS011;2501;51.214;6.768;2023-04-06T06:32:47;17.30;;;10.27;;
4971;SDS011;2501;51.214;6.768;2023-04-06T06:35:18;18.08;;;9.80;;
4971;SDS011;2501;51.214;6.768;2023-04-06T06:37:47;14.70;;;9.77;;
4971;SDS011;2501;51.214;6.768;2023-04-06T06:40:16;14.15;;;9.73;;
4971;SDS011;2501;51.214;6.768;2023-04-06T06:42:47;19.43;;;12.33;;
4971;SDS011;2501;51.214;6.768;2023-04-06T06:45:15;14.88;;;9.60;;
4971;SDS011;2501;51.214;6.768;2023-04-06T06:47:45;13.52;;;9.35;;
4971;SDS011;2501;51.214;6.768;2023-04-06T06:50:15;19.02;;;9.98;;
4971;SDS011;2501;51.214;6.768;2023-04-06T06:52:46;13.68;;;9.45;;
4971;SDS011;2501;51.214;6.768;2023-04-06T06:55:14;16.52;;;9.20;;
4971;SDS011;2501;51.214;6.768;2023-04-06T06:57:44;17.55;;;10.45;;
4971;SDS011;2501;51.214;6.768;2023-04-06T07:00:14;16.27;;;9.27;;
4971;SDS011;2501;51.214;6.768;2023-04-06T07:02:45;17.83;;;9.27;;
4971;SDS011;2501;51.214;6.768;2023-04-06T07:05:14;21.10;;;9.27;;
4971;SDS011;2501;51.214;6.768;2023-04-06T07:07:46;16.35;;;10.00;;
4971;SDS011;2501;51.214;6.768;2023-04-06T07:10:14;15.03;;;9.77;;
4971;SDS011;2501;51.214;6.768;2023-04-06T07:12:43;18.52;;;9.55;;
4971;SDS011;2501;51.214;6.768;2023-04-06T07:15:11;16.23;;;9.07;;
4971;SDS011;2501;51.214;6.768;2023-04-06T07:17:40;18.42;;;9.85;;
4971;SDS011;2501;51.214;6.768;2023-04-06T07:20:10;14.70;;;8.32;;
4971;SDS011;2501;51.214;6.768;2023-04-06T07:22:42;16.00;;;9.55;;
4971;SDS011;2501;51.214;6.768;2023-04-06T07:25:14;16.70;;;9.63;;
4971;SDS011;2501;51.214;6.768;2023-04-06T07:27:42;18.25;;;9.82;;
4971;SDS011;2501;51.214;6.768;2023-04-06T07:30:11;18.92;;;9.40;;
4971;SDS011;2501;51.214;6.768;2023-04-06T07:32:40;14.40;;;9.60;;
4971;SDS011;2501;51.214;6.768;2023-04-06T07:35:08;17.65;;;9.75;;
4971;SDS011;2501;51.214;6.768;2023-04-06T07:37:37;13.95;;;9.63;;
4971;SDS011;2501;51.214;6.768;2023-04-06T07:40:06;18.58;;;10.40;;
4971;SDS011;2501;51.214;6.768;2023-04-06T07:42:38;18.27;;;9.73;;
4971;SDS011;2501;51.214;6.768;2023-04-06T07:45:07;17.20;;;9.85;;
4971;SDS011;2501;51.214;6.768;2023-04-06T07:47:36;20.80;;;9.80;;
4971;SDS011;2501;51.214;6.768;2023-04-06T07:50:05;15.73;;;10.13;;
4971;SDS011;2501;51.214;6.768;2023-04-06T07:52:34;17.50;;;10.20;;
4971;SDS011;2501;51.214;6.768;2023-04-06T07:55:02;21.38;;;10.63;;
4971;SDS011;2501;51.214;6.768;2023-04-06T07:57:31;16.88;;;9.98;;
4971;SDS011;2501;51.214;6.768;2023-04-06T08:00:03;20.50;;;10.80;;
4971;SDS011;2501;51.214;6.768;2023-04-06T08:02:34;16.90;;;10.23;;
4971;SDS011;2501;51.214;6.768;2023-04-06T08:05:03;17.10;;;10.40;;
4971;SDS011;2501;51.214;6.768;2023-04-06T08:07:32;21.40;;;11.40;;
4971;SDS011;2501;51.214;6.768;2023-04-06T08:10:01;15.57;;;10.93;;
4971;SDS011;2501;51.214;6.768;2023-04-06T08:12:31;21.83;;;12.00;;
4971;SDS011;2501;51.214;6.768;2023-04-06T08:15:03;16.23;;;11.60;;
4971;SDS011;2501;51.214;6.768;2023-04-06T08:17:33;18.73;;;10.80;;
4971;SDS011;2501;51.214;6.768;2023-04-06T08:20:01;14.00;;;9.80;;
4971;SDS011;2501;51.214;6.768;2023-04-06T08:22:31;18.27;;;9.82;;
4971;SDS011;2501;51.214;6.768;2023-04-06T08:24:59;16.88;;;10.20;;
4971;SDS011;2501;51.214;6.768;2023-04-06T08:27:28;18.20;;;10.80;;
4971;SDS011;2501;51.214;6.768;2023-04-06T08:29:56;16.95;;;10.88;;
4971;SDS011;2501;51.214;6.768;2023-04-06T08:32:28;19.08;;;11.00;;
4971;SDS011;2501;51.214;6.768;2023-04-06T08:34:56;19.23;;;10.82;;
4971;SDS011;2501;51.214;6.768;2023-04-06T08:37:25;20.23;;;12.10;;
4971;SDS011;2501;51.214;6.768;2023-04-06T08:39:54;19.17;;;11.10;;
4971;SDS011;2501;51.214;6.768;2023-04-06T08:42:24;22.55;;;11.40;;
4971;SDS011;2501;51.214;6.768;2023-04-06T08:44:54;22.08;;;11.73;;
4971;SDS011;2501;51.214;6.768;2023-04-06T08:47:23;27.10;;;12.15;;
4971;SDS011;2501;51.214;6.768;2023-04-06T08:49:55;21.35;;;13.05;;
4971;SDS011;2501;51.214;6.768;2023-04-06T08:52:24;19.33;;;12.27;;
4971;SDS011;2501;51.214;6.768;2023-04-06T08:54:54;21.40;;;12.67;;
4971;SDS011;2501;51.214;6.768;2023-04-06T08:57:23;22.27;;;13.82;;
4971;SDS011;2501;51.214;6.768;2023-04-06T08:59:52;21.35;;;13.10;;
4971;SDS011;2501;51.214;6.768;2023-04-06T09:02:24;26.10;;;13.60;;
4971;SDS011;2501;51.214;6.768;2023-04-06T09:04:56;28.23;;;13.65;;
4971;SDS011;2501;51.214;6.768;2023-04-06T09:07:26;22.77;;;13.60;;
4971;SDS011;2501;51.214;6.768;2023-04-06T09:09:56;27.27;;;13.30;;
4971;SDS011;2501;51.214;6.768;2023-04-06T09:12:25;22.27;;;13.95;;
4971;SDS011;2501;51.214;6.768;2023-04-06T09:14:55;24.13;;;13.20;;
4971;SDS011;2501;51.214;6.768;2023-04-06T09:17:26;24.30;;;13.63;;
4971;SDS011;2501;51.214;6.768;2023-04-06T09:20:00;24.80;;;14.95;;
4971;SDS011;2501;51.214;6.768;2023-04-06T09:22:35;26.30;;;14.20;;
4971;SDS011;2501;51.214;6.768;2023-04-06T09:25:04;27.23;;;13.93;;
4971;SDS011;2501;51.214;6.768;2023-04-06T09:27:34;26.15;;;13.93;;
4971;SDS011;2501;51.214;6.768;2023-04-06T09:30:08;24.90;;;14.88;;
4971;SDS011;2501;51.214;6.768;2023-04-06T09:32:45;27.45;;;15.10;;
4971;SDS011;2501;51.214;6.768;2023-04-06T09:35:19;29.08;;;14.80;;
4971;SDS011;2501;51.214;6.768;2023-04-06T09:37:49;26.38;;;13.15;;
4971;SDS011;2501;51.214;6.768;2023-04-06T09:40:19;28.73;;;14.05;;
4971;SDS011;2501;51.214;6.768;2023-04-06T09:42:48;25.42;;;14.60;;
4971;SDS011;2501;51.214;6.768;2023-04-06T09:45:18;23.05;;;13.38;;
4971;SDS011;2501;51.214;6.768;2023-04-06T09:47:47;27.73;;;14.70;;
4971;SDS011;2501;51.214;6.768;2023-04-06T09:50:21;26.13;;;14.52;;
4971;SDS011;2501;51.214;6.768;2023-04-06T09:52:51;26.88;;;14.40;;
4971;SDS011;2501;51.214;6.768;2023-04-06T09:55:25;30.13;;;14.75;;
4971;SDS011;2501;51.214;6.768;2023-04-06T09:58:01;24.90;;;14.35;;
4971;SDS011;2501;51.214;6.768;2023-04-06T10:00:32;30.17;;;14.53;;
4971;SDS011;2501;51.214;6.768;2023-04-06T10:03:10;26.90;;;14.45;;
4971;SDS011;2501;51.214;6.768;2023-04-06T10:05:50;28.00;;;15.40;;
4971;SDS011;2501;51.214;6.768;2023-04-06T10:08:24;24.07;;;14.50;;
4971;SDS011;2501;51.214;6.768;2023-04-06T10:10:55;30.85;;;15.10;;
4971;SDS011;2501;51.214;6.768;2023-04-06T10:13:24;31.23;;;15.47;;
4971;SDS011;2501;51.214;6.768;2023-04-06T10:15:54;27.17;;;14.20;;
4971;SDS011;2501;51.214;6.768;2023-04-06T10:18:23;31.25;;;15.48;;
4971;SDS011;2501;51.214;6.768;2023-04-06T10:20:55;29.20;;;14.97;;
4971;SDS011;2501;51.214;6.768;2023-04-06T10:23:29;29.00;;;15.30;;
4971;SDS011;2501;51.214;6.768;2023-04-06T10:26:01;30.63;;;15.37;;
4971;SDS011;2501;51.214;6.768;2023-04-06T10:28:33;30.33;;;15.50;;
4971;SDS011;2501;51.214;6.768;2023-04-06T10:31:04;28.63;;;15.33;;
4971;SDS011;2501;51.214;6.768;2023-04-06T10:33:34;28.02;;;16.10;;
4971;SDS011;2501;51.214;6.768;2023-04-06T10:36:13;27.52;;;15.68;;
4971;SDS011;2501;51.214;6.768;2023-04-06T10:38:42;29.45;;;14.82;;
4971;SDS011;2501;51.214;6.768;2023-04-06T10:41:11;32.80;;;18.08;;
4971;SDS011;2501;51.214;6.768;2023-04-06T10:43:40;27.27;;;15.27;;
4971;SDS011;2501;51.214;6.768;2023-04-06T10:46:09;29.05;;;14.88;;
4971;SDS011;2501;51.214;6.768;2023-04-06T10:48:38;26.95;;;14.57;;
4971;SDS011;2501;51.214;6.768;2023-04-06T10:51:08;22.90;;;13.43;;
4971;SDS011;2501;51.214;6.768;2023-04-06T10:53:41;35.00;;;17.60;;
4971;SDS011;2501;51.214;6.768;2023-04-06T10:56:12;28.85;;;13.50;;
4971;SDS011;2501;51.214;6.768;2023-04-06T10:58:45;31.40;;;15.10;;
4971;SDS011;2501;51.214;6.768;2023-04-06T11:01:14;25.80;;;15.87;;
4971;SDS011;2501;51.214;6.768;2023-04-06T11:03:44;29.92;;;15.00;;
4971;SDS011;2501;51.214;6.768;2023-04-06T11:06:19;24.58;;;14.23;;
4971;SDS011;2501;51.214;6.768;2023-04-06T11:08:51;25.35;;;14.38;;
4971;SDS011;2501;51.214;6.768;2023-04-06T11:11:21;32.03;;;15.00;;
4971;SDS011;2501;51.214;6.768;2023-04-06T11:13:52;33.28;;;16.60;;
4971;SDS011;2501;51.214;6.768;2023-04-06T11:16:22;29.73;;;15.43;;
4971;SDS011;2501;51.214;6.768;2023-04-06T11:18:53;28.60;;;15.40;;
4971;SDS011;2501;51.214;6.768;2023-04-06T11:21:32;32.70;;;17.50;;
4971;SDS011;2501;51.214;6.768;2023-04-06T11:24:10;33.72;;;16.90;;
4971;SDS011;2501;51.214;6.768;2023-04-06T11:26:41;31.00;;;15.35;;
4971;SDS011;2501;51.214;6.768;2023-04-06T11:29:12;27.23;;;15.23;;
4971;SDS011;2501;51.214;6.768;2023-04-06T11:31:41;26.48;;;15.30;;
4971;SDS011;2501;51.214;6.768;2023-04-06T11:34:12;27.20;;;15.00;;
4971;SDS011;2501;51.214;6.768;2023-04-06T11:36:43;23.33;;;14.85;;
4971;SDS011;2501;51.214;6.768;2023-04-06T11:39:17;28.50;;;15.15;;
4971;SDS011;2501;51.214;6.768;2023-04-06T11:41:48;25.00;;;14.63;;
4971;SDS011;2501;51.214;6.768;2023-04-06T11:44:27;29.10;;;15.30;;
4971;SDS011;2501;51.214;6.768;2023-04-06T11:46:57;27.30;;;14.35;;
4971;SDS011;2501;51.214;6.768;2023-04-06T11:49:26;25.83;;;14.50;;
4971;SDS011;2501;51.214;6.768;2023-04-06T11:51:55;27.88;;;14.70;;
4971;SDS011;2501;51.214;6.768;2023-04-06T11:54:33;26.60;;;13.57;;
4971;SDS011;2501;51.214;6.768;2023-04-06T11:57:03;27.05;;;13.80;;
4971;SDS011;2501;51.214;6.768;2023-04-06T11:59:33;30.10;;;14.55;;
4971;SDS011;2501;51.214;6.768;2023-04-06T12:02:02;26.98;;;13.23;;
4971;SDS011;2501;51.214;6.768;2023-04-06T12:04:31;25.40;;;14.02;;
4971;SDS011;2501;51.214;6.768;2023-04-06T12:07:00;22.02;;;13.70;;
4971;SDS011;2501;51.214;6.768;2023-04-06T12:09:29;31.33;;;12.43;;
4971;SDS011;2501;51.214;6.768;2023-04-06T12:12:02;25.02;;;14.15;;
4971;SDS011;2501;51.214;6.768;2023-04-06T12:14:31;22.58;;;13.45;;
4971;SDS011;2501;51.214;6.768;2023-04-06T12:17:00;21.77;;;13.37;;
4971;SDS011;2501;51.214;6.768;2023-04-06T12:19:28;32.63;;;14.35;;
4971;SDS011;2501;51.214;6.768;2023-04-06T12:21:57;20.15;;;12.52;;
4971;SDS011;2501;51.214;6.768;2023-04-06T12:24:27;28.02;;;13.75;;
4971;SDS011;2501;51.214;6.768;2023-04-06T12:26:56;27.73;;;12.75;;
4971;SDS011;2501;51.214;6.768;2023-04-06T12:29:27;22.65;;;12.60;;
4971;SDS011;2501;51.214;6.768;2023-04-06T12:31:56;23.27;;;12.35;;
4971;SDS011;2501;51.214;6.768;2023-04-06T12:34:26;29.42;;;12.68;;
4971;SDS011;2501;51.214;6.768;2023-04-06T12:36:55;30.03;;;14.17;;
4971;SDS011;2501;51.214;6.768;2023-04-06T12:39:23;22.23;;;11.90;;
4971;SDS011;2501;51.214;6.768;2023-04-06T12:41:52;22.45;;;11.50;;
4971;SDS011;2501;51.214;6.768;2023-04-06T12:44:21;18.67;;;9.93;;
4971;SDS011;2501;51.214;6.768;2023-04-06T12:46:52;20.17;;;10.73;;
4971;SDS011;2501;51.214;6.768;2023-04-06T12:49:21;17.37;;;10.47;;
4971;SDS011;2501;51.214;6.768;2023-04-06T12:51:49;18.40;;;9.10;;
4971;SDS011;2501;51.214;6.768;2023-04-06T12:54:18;19.95;;;10.00;;
4971;SDS011;2501;51.214;6.768;2023-04-06T12:56:46;17.25;;;9.30;;
4971;SDS011;2501;51.214;6.768;2023-04-06T12:59:15;20.63;;;10.98;;
4971;SDS011;2501;51.214;6.768;2023-04-06T13:01:45;15.18;;;9.38;;
4971;SDS011;2501;51.214;6.768;2023-04-06T13:04:17;15.93;;;9.95;;
4971;SDS011;2501;51.214;6.768;2023-04-06T13:06:45;17.58;;;10.63;;
4971;SDS011;2501;51.214;6.768;2023-04-06T13:09:14;18.48;;;9.40;;
4971;SDS011;2501;51.214;6.768;2023-04-06T13:11:42;17.13;;;9.40;;
4971;SDS011;2501;51.214;6.768;2023-04-06T13:14:11;18.33;;;10.07;;
4971;SDS011;2501;51.214;6.768;2023-04-06T13:16:40;15.20;;;10.35;;
4971;SDS011;2501;51.214;6.768;2023-04-06T13:19:08;18.90;;;10.48;;
4971;SDS011;2501;51.214;6.768;2023-04-06T13:21:39;16.45;;;10.13;;
4971;SDS011;2501;51.214;6.768;2023-04-06T13:24:08;17.05;;;9.35;;
4971;SDS011;2501;51.214;6.768;2023-04-06T13:26:37;13.60;;;9.65;;
4971;SDS011;2501;51.214;6.768;2023-04-06T13:29:06;16.10;;;10.73;;
4971;SDS011;2501;51.214;6.768;2023-04-06T13:31:34;18.67;;;10.60;;
4971;SDS011;2501;51.214;6.768;2023-04-06T13:34:04;14.55;;;9.23;;
4971;SDS011;2501;51.214;6.768;2023-04-06T13:36:32;11.55;;;8.70;;
4971;SDS011;2501;51.214;6.768;2023-04-06T13:39:04;21.05;;;9.40;;
4971;SDS011;2501;51.214;6.768;2023-04-06T13:41:33;11.35;;;8.50;;
4971;SDS011;2501;51.214;6.768;2023-04-06T13:44:01;14.10;;;8.95;;
4971;SDS011;2501;51.214;6.768;2023-04-06T13:46:30;13.77;;;8.85;;
4971;SDS011;2501;51.214;6.768;2023-04-06T13:48:59;12.82;;;8.52;;
4971;SDS011;2501;51.214;6.768;2023-04-06T13:51:27;14.43;;;8.57;;
4971;SDS011;2501;51.214;6.768;2023-04-06T13:53:56;12.98;;;8.05;;
4971;SDS011;2501;51.214;6.768;2023-04-06T13:56:27;13.48;;;8.20;;
4971;SDS011;2501;51.214;6.768;2023-04-06T13:58:55;13.80;;;8.87;;
4971;SDS011;2501;51.214;6.768;2023-04-06T14:01:24;14.27;;;8.63;;
4971;SDS011;2501;51.214;6.768;2023-04-06T14:03:52;13.77;;;8.80;;
4971;SDS011;2501;51.214;6.768;2023-04-06T14:06:21;16.15;;;9.25;;
4971;SDS011;2501;51.214;6.768;2023-04-06T14:08:49;12.13;;;8.40;;
4971;SDS011;2501;51.214;6.768;2023-04-06T14:11:18;15.55;;;8.73;;
4971;SDS011;2501;51.214;6.768;2023-04-06T14:13:49;17.55;;;9.10;;
4971;SDS011;2501;51.214;6.768;2023-04-06T14:16:18;12.55;;;9.02;;
4971;SDS011;2501;51.214;6.768;2023-04-06T14:18:48;13.45;;;9.05;;
4971;SDS011;2501;51.214;6.768;2023-04-06T14:21:17;15.65;;;9.38;;
4971;SDS011;2501;51.214;6.768;2023-04-06T14:23:46;11.98;;;9.05;;
4971;SDS011;2501;51.214;6.768;2023-04-06T14:26:14;12.75;;;8.77;;
4971;SDS011;2501;51.214;6.768;2023-04-06T14:28:44;12.07;;;8.75;;
4971;SDS011;2501;51.214;6.768;2023-04-06T14:31:15;13.07;;;8.60;;
4971;SDS011;2501;51.214;6.768;2023-04-06T14:33:44;16.15;;;9.10;;
4971;SDS011;2501;51.214;6.768;2023-04-06T14:36:12;13.18;;;9.05;;
4971;SDS011;2501;51.214;6.768;2023-04-06T14:38:41;11.68;;;8.75;;
4971;SDS011;2501;51.214;6.768;2023-04-06T14:41:14;15.82;;;9.27;;
4971;SDS011;2501;51.214;6.768;2023-04-06T14:43:44;14.87;;;9.00;;
4971;SDS011;2501;51.214;6.768;2023-04-06T14:46:16;18.63;;;9.90;;
4971;SDS011;2501;51.214;6.768;2023-04-06T14:48:45;15.90;;;9.45;;
4971;SDS011;2501;51.214;6.768;2023-04-06T14:51:13;16.05;;;10.48;;
4971;SDS011;2501;51.214;6.768;2023-04-06T14:53:42;15.88;;;9.80;;
4971;SDS011;2501;51.214;6.768;2023-04-06T14:56:11;13.38;;;9.27;;
4971;SDS011;2501;51.214;6.768;2023-04-06T14:58:39;15.82;;;10.27;;
4971;SDS011;2501;51.214;6.768;2023-04-06T15:01:08;12.13;;;8.50;;
4971;SDS011;2501;51.214;6.768;2023-04-06T15:03:39;14.73;;;9.30;;